Time;durP1;ratioP1;P1;durP2;ratioP2;P2;SDS_P1;SDS_P2;PMS_P1;PMS_P2;Temp;Humidity;BMP_temperature;BMP_pressure;BME280_temperature;BME280_humidity;BME280_pressure;Samples;Min_cycle;Max_cycle;Signal;HPM_P1;HPM_P2
2021/04/17 00:02:11;;;;;;;14.00;12.53;;;;;;;2.49;87.59;98608.19;5055700;28;20599;-72
2021/04/17 00:04:39;;;;;;;16.97;15.17;;;;;;;2.66;86.82;98614.09;5058959;28;20232;-73
2021/04/17 00:07:07;;;;;;;14.90;13.40;;;;;;;2.63;86.48;98612.50;5058568;28;20290;-72
2021/04/17 00:09:34;;;;;;;16.37;14.87;;;;;;;2.47;87.59;98599.59;5058515;28;20206;-72
2021/04/17 00:12:05;;;;;;;14.50;13.10;;;;;;;2.42;87.89;98602.47;5059425;28;20643;-73
2021/04/17 00:14:36;;;;;;;12.63;11.47;;;;;;;2.36;88.77;98597.66;5059310;28;20310;-72
2021/04/17 00:17:12;;;;;;;15.57;14.03;;;;;;;2.36;89.09;98592.41;5059211;28;20257;-73
2021/04/17 00:19:40;;;;;;;14.40;12.93;;;;;;;2.49;88.34;98591.63;5061528;28;20203;-72
2021/04/17 00:22:07;;;;;;;14.83;13.40;;;;;;;2.67;87.66;98598.31;5057223;28;20570;-72
2021/04/17 00:24:34;;;;;;;14.37;12.97;;;;;;;2.43;88.19;98593.69;5056758;28;20481;-73
2021/04/17 00:27:03;;;;;;;13.40;12.20;;;;;;;2.56;88.37;98596.38;5057968;28;20199;-72
2021/04/17 00:29:31;;;;;;;13.27;11.87;;;;;;;2.52;87.92;98596.66;5059904;28;20650;-72
2021/04/17 00:31:59;;;;;;;15.03;13.63;;;;;;;2.54;87.37;98594.78;5061409;28;20199;-73
2021/04/17 00:34:26;;;;;;;15.33;13.07;;;;;;;2.58;87.22;98585.78;5060205;28;20246;-72
2021/04/17 00:36:54;;;;;;;13.90;12.40;;;;;;;2.45;87.60;98591.81;5055907;28;20208;-73
2021/04/17 00:39:21;;;;;;;13.90;12.70;;;;;;;2.45;88.04;98594.44;5059468;28;20329;-72
2021/04/17 00:41:48;;;;;;;14.47;13.10;;;;;;;2.57;87.23;98587.59;5056872;28;20693;-73
2021/04/17 00:44:16;;;;;;;14.07;12.87;;;;;;;2.58;88.29;98583.19;5059165;28;20561;-72
2021/04/17 00:46:43;;;;;;;15.13;13.63;;;;;;;2.54;87.38;98584.31;5056165;28;20217;-72
2021/04/17 00:49:12;;;;;;;14.07;12.77;;;;;;;2.54;88.24;98577.31;5055301;28;20282;-73
2021/04/17 00:51:39;;;;;;;14.77;13.27;;;;;;;2.63;87.64;98586.34;5057009;28;20342;-72
2021/04/17 00:54:07;;;;;;;13.60;12.40;;;;;;;2.50;87.56;98583.69;5057097;28;20695;-72
2021/04/17 00:56:34;;;;;;;14.30;13.00;;;;;;;2.46;87.88;98572.56;5057801;28;20210;-73
2021/04/17 00:59:02;;;;;;;13.60;12.37;;;;;;;2.49;87.81;98574.16;5061124;28;20313;-72
2021/04/17 01:01:30;;;;;;;14.50;12.67;;;;;;;2.57;87.45;98574.50;5052753;28;20770;-71
2021/04/17 01:04:02;;;;;;;14.77;13.47;;;;;;;2.40;87.58;98569.50;5060384;28;20602;-72
2021/04/17 01:06:33;;;;;;;14.23;12.83;;;;;;;2.37;88.90;98577.53;5055651;28;20659;-73
2021/04/17 01:09:04;;;;;;;13.90;12.67;;;;;;;2.38;88.22;98576.59;5057862;28;20194;-73
2021/04/17 01:11:37;;;;;;;14.17;12.80;;;;;;;2.34;88.04;98575.13;5058201;28;20299;-73
2021/04/17 01:14:05;;;;;;;13.30;12.10;;;;;;;2.31;88.54;98569.16;5060189;28;20223;-72
2021/04/17 01:16:33;;;;;;;14.20;12.90;;;;;;;2.21;89.49;98569.81;5054490;28;20685;-73
2021/04/17 01:19:01;;;;;;;13.43;12.20;;;;;;;2.25;89.30;98566.06;5057732;28;20218;-73
2021/04/17 01:21:29;;;;;;;13.97;12.77;;;;;;;2.20;89.68;98570.75;5057709;28;20617;-71
2021/04/17 01:24:01;;;;;;;14.53;13.33;;;;;;;2.10;90.87;98570.53;5056000;28;20268;-72
2021/04/17 01:26:29;;;;;;;13.40;12.10;;;;;;;2.18;90.14;98570.88;5061257;28;20191;-72
2021/04/17 01:28:58;;;;;;;14.87;13.47;;;;;;;2.28;88.99;98569.34;5060536;28;20214;-72
2021/04/17 01:31:30;;;;;;;12.50;11.33;;;;;;;2.34;89.21;98572.50;5063256;28;20233;-72
2021/04/17 01:33:58;;;;;;;13.57;12.47;;;;;;;2.24;89.20;98567.88;5058196;28;20599;-73
2021/04/17 01:36:26;;;;;;;13.17;12.07;;;;;;;2.13;89.92;98570.34;5054277;28;20207;-72
2021/04/17 01:38:56;;;;;;;13.97;12.77;;;;;;;2.13;89.70;98567.72;5059258;28;20210;-73
2021/04/17 01:41:25;;;;;;;13.20;12.00;;;;;;;2.01;90.77;98564.09;5056430;28;20237;-72
2021/04/17 01:43:56;;;;;;;11.83;10.83;;;;;;;2.17;89.80;98569.19;5053922;28;20210;-73
2021/04/17 01:46:25;;;;;;;13.73;11.93;;;;;;;2.21;89.10;98561.97;5054242;28;20203;-73
2021/04/17 01:48:57;;;;;;;13.47;12.13;;;;;;;2.17;89.06;98567.41;5060236;28;20727;-72
2021/04/17 01:51:25;;;;;;;13.27;12.17;;;;;;;2.25;88.70;98564.31;5057704;28;20231;-72
2021/04/17 01:53:53;;;;;;;13.43;12.23;;;;;;;2.09;90.08;98564.44;5060627;28;20227;-72
2021/04/17 01:56:21;;;;;;;11.90;10.80;;;;;;;2.13;89.25;98565.91;5057439;28;20356;-72
2021/04/17 01:58:49;;;;;;;12.37;11.27;;;;;;;2.03;89.63;98564.84;5059967;28;20237;-72
2021/04/17 02:01:19;;;;;;;14.70;13.37;;;;;;;2.05;89.23;98556.88;5060177;28;20227;-73
2021/04/17 02:03:47;;;;;;;12.10;11.10;;;;;;;2.08;89.24;98554.91;5057515;28;20214;-73
2021/04/17 02:06:15;;;;;;;13.03;11.87;;;;;;;1.96;90.02;98551.28;5057783;28;20229;-73
2021/04/17 02:08:42;;;;;;;13.27;12.07;;;;;;;2.02;89.57;98548.28;5053809;28;20238;-73
2021/04/17 02:11:09;;;;;;;14.20;12.77;;;;;;;2.06;89.34;98541.09;5059715;28;20707;-73
2021/04/17 02:13:40;;;;;;;15.07;13.87;;;;;;;1.91;89.60;98540.28;5056746;28;20225;-73
2021/04/17 02:16:11;;;;;;;18.00;16.50;;;;;;;1.76;90.87;98541.25;5061544;28;20199;-73
2021/04/17 02:18:47;;;;;;;14.97;13.67;;;;;;;1.91;91.24;98531.63;5062943;28;20558;-73
2021/04/17 02:21:16;;;;;;;15.07;13.67;;;;;;;1.71;91.29;98539.75;5063321;28;20465;-73
2021/04/17 02:23:43;;;;;;;14.47;13.17;;;;;;;1.65;91.88;98541.91;5061031;28;20298;-73
2021/04/17 02:26:10;;;;;;;15.33;13.97;;;;;;;1.69;91.93;98539.00;5064382;28;20286;-72
2021/04/17 02:28:38;;;;;;;14.67;13.40;;;;;;;1.57;92.68;98532.75;5063317;28;20268;-73
2021/04/17 02:31:05;;;;;;;13.23;12.07;;;;;;;1.54;93.24;98534.72;5064314;28;20792;-73
2021/04/17 02:33:33;;;;;;;13.67;12.47;;;;;;;1.51;93.46;98538.34;5063616;28;20214;-73
2021/04/17 02:36:01;;;;;;;13.43;12.20;;;;;;;1.36;93.89;98528.81;5056744;28;20523;-73
2021/04/17 02:38:28;;;;;;;13.93;12.67;;;;;;;1.31;94.60;98534.31;5062798;28;20221;-73
2021/04/17 02:40:56;;;;;;;14.27;13.07;;;;;;;1.28;95.07;98535.34;5062138;28;20227;-73
2021/04/17 02:43:23;;;;;;;14.47;13.23;;;;;;;1.15;95.27;98531.81;5060671;28;20722;-73
2021/04/17 02:45:50;;;;;;;13.57;12.23;;;;;;;1.06;95.74;98527.13;5060523;28;20227;-73
2021/04/17 02:48:17;;;;;;;14.27;12.47;;;;;;;0.97;96.47;98531.13;5060660;28;20203;-74
2021/04/17 02:50:45;;;;;;;14.00;12.60;;;;;;;0.97;96.04;98529.34;5060004;28;20230;-73
2021/04/17 02:53:13;;;;;;;14.50;13.10;;;;;;;0.90;97.17;98527.16;5056876;28;20808;-72
2021/04/17 02:55:40;;;;;;;12.10;11.10;;;;;;;0.84;97.70;98524.00;5062297;28;20998;-73
2021/04/17 02:58:07;;;;;;;13.20;12.10;;;;;;;0.78;98.27;98521.75;5061337;28;20199;-73
2021/04/17 03:00:34;;;;;;;14.17;12.87;;;;;;;0.81;98.62;98518.13;5055490;28;20230;-74
2021/04/17 03:03:01;;;;;;;14.50;13.10;;;;;;;0.85;98.21;98519.63;5062008;28;20687;-72
2021/04/17 03:05:28;;;;;;;12.90;11.70;;;;;;;0.76;98.07;98523.59;5062677;28;20283;-72
2021/04/17 03:07:56;;;;;;;14.23;12.93;;;;;;;0.71;98.44;98518.63;5060861;28;20272;-73
2021/04/17 03:10:24;;;;;;;14.03;12.83;;;;;;;0.72;98.89;98514.28;5060022;28;21264;-73
2021/04/17 03:12:51;;;;;;;14.30;13.00;;;;;;;0.80;98.72;98517.28;5062012;28;20195;-73
2021/04/17 03:15:18;;;;;;;16.80;13.70;;;;;;;0.83;98.82;98514.47;5059554;28;20650;-73
2021/04/17 03:17:45;;;;;;;13.87;12.47;;;;;;;0.79;99.04;98507.78;5059916;28;20344;-73
2021/04/17 03:20:13;;;;;;;14.47;13.13;;;;;;;0.82;98.39;98509.38;5060634;28;20290;-73
2021/04/17 03:22:40;;;;;;;13.87;12.57;;;;;;;0.92;98.50;98501.81;5058112;28;20208;-73
2021/04/17 03:25:10;;;;;;;16.10;13.23;;;;;;;0.80;98.59;98506.84;5062222;28;20207;-73
2021/04/17 03:27:39;;;;;;;14.77;13.37;;;;;;;0.79;98.87;98501.72;5062155;28;20297;-73
2021/04/17 03:30:07;;;;;;;13.97;12.67;;;;;;;0.80;99.11;98500.78;5063635;28;20238;-73
2021/04/17 03:32:35;;;;;;;14.03;12.70;;;;;;;0.83;98.57;98496.22;5060129;28;20304;-74
2021/04/17 03:35:02;;;;;;;13.90;12.60;;;;;;;0.97;98.02;98500.63;5060058;28;20580;-74
2021/04/17 03:37:29;;;;;;;14.60;13.10;;;;;;;0.90;97.81;98498.47;5059405;28;20294;-73
2021/04/17 03:39:56;;;;;;;13.50;12.30;;;;;;;0.80;98.53;98499.00;5059812;28;20223;-74
2021/04/17 03:42:23;;;;;;;13.63;12.43;;;;;;;0.77;98.08;98501.81;5057456;28;20207;-73
2021/04/17 03:44:52;;;;;;;14.37;12.87;;;;;;;0.64;98.90;98493.00;5060713;28;20207;-73
2021/04/17 03:47:19;;;;;;;14.53;13.03;;;;;;;0.66;100.00;98493.75;5062645;28;20238;-73
2021/04/17 03:49:46;;;;;;;13.93;12.70;;;;;;;0.67;100.00;98500.66;5058424;28;20281;-74
2021/04/17 03:52:13;;;;;;;14.13;12.93;;;;;;;0.74;100.00;98501.97;5060940;28;20195;-73
2021/04/17 03:54:40;;;;;;;13.90;12.70;;;;;;;0.83;99.81;98498.81;5054596;28;20228;-73
2021/04/17 03:57:08;;;;;;;13.70;12.50;;;;;;;0.88;99.16;98493.34;5059592;28;20221;-73
2021/04/17 03:59:35;;;;;;;15.13;13.83;;;;;;;0.83;98.98;98496.22;5059021;28;20253;-74
2021/04/17 04:02:03;;;;;;;14.37;12.97;;;;;;;0.79;98.84;98489.50;5062337;28;20198;-73
2021/04/17 04:04:30;;;;;;;14.83;13.43;;;;;;;0.70;99.19;98496.09;5058564;28;20207;-73
2021/04/17 04:06:58;;;;;;;14.77;13.27;;;;;;;0.72;99.71;98503.84;5058939;28;20219;-74
2021/04/17 04:09:25;;;;;;;15.60;14.10;;;;;;;0.72;100.00;98502.06;5060692;28;20211;-73
2021/04/17 04:11:52;;;;;;;14.63;13.17;;;;;;;0.72;99.73;98499.44;5058023;28;20236;-73
2021/04/17 04:14:19;;;;;;;14.23;13.03;;;;;;;0.76;100.00;98504.47;5059970;28;20831;-74
2021/04/17 04:16:46;;;;;;;14.30;13.10;;;;;;;0.90;99.20;98499.31;5059442;28;20202;-74
2021/04/17 04:19:14;;;;;;;15.00;13.70;;;;;;;0.84;99.52;98499.69;5058031;28;20453;-74
2021/04/17 04:21:42;;;;;;;15.57;13.97;;;;;;;0.88;98.71;98503.78;5061230;28;20225;-74
2021/04/17 04:24:09;;;;;;;14.17;12.87;;;;;;;0.91;99.17;98498.38;5058897;28;20238;-73
2021/04/17 04:26:37;;;;;;;14.17;12.87;;;;;;;0.90;99.23;98498.47;5059786;28;20207;-73
2021/04/17 04:29:04;;;;;;;14.33;13.00;;;;;;;0.95;99.28;98507.72;5058048;28;20284;-73
2021/04/17 04:31:34;;;;;;;15.17;13.80;;;;;;;0.93;99.16;98501.75;5057361;28;20557;-73
2021/04/17 04:34:01;;;;;;;15.17;13.77;;;;;;;0.96;98.71;98500.75;5054630;28;20215;-72
2021/04/17 04:36:29;;;;;;;13.40;12.20;;;;;;;1.06;99.13;98494.03;5057816;28;20286;-72
2021/04/17 04:38:56;;;;;;;14.67;13.27;;;;;;;0.99;98.78;98496.16;5058064;28;20286;-73
2021/04/17 04:41:23;;;;;;;15.87;14.43;;;;;;;1.15;98.62;98503.09;5058957;28;20309;-73
2021/04/17 04:43:50;;;;;;;25.90;23.03;;;;;;;1.26;97.06;98498.06;5060863;28;20391;-73
2021/04/17 04:46:18;;;;;;;25.60;23.23;;;;;;;1.39;95.81;98503.38;5059373;28;20321;-71
2021/04/17 04:48:45;;;;;;;86.60;80.00;;;;;;;1.39;95.89;98508.59;5061172;28;20755;-72
2021/04/17 04:51:14;;;;;;;30.97;28.47;;;;;;;1.61;93.98;98512.50;5061410;28;20226;-72
2021/04/17 04:53:42;;;;;;;16.63;14.93;;;;;;;1.47;94.22;98512.50;5058642;28;20230;-72
2021/04/17 04:56:09;;;;;;;16.07;14.57;;;;;;;1.42;94.77;98513.63;5059869;28;20203;-71
2021/04/17 04:58:37;;;;;;;14.97;13.67;;;;;;;1.39;94.53;98513.81;5060869;28;20199;-71
2021/04/17 05:01:04;;;;;;;15.13;13.63;;;;;;;1.52;94.63;98524.38;5057881;28;20229;-73
2021/04/17 05:03:31;;;;;;;19.23;17.63;;;;;;;1.51;94.53;98520.06;5058070;28;20218;-72
2021/04/17 05:05:59;;;;;;;14.70;13.40;;;;;;;1.66;93.37;98510.44;5058347;28;20705;-72
2021/04/17 05:08:26;;;;;;;14.47;12.87;;;;;;;1.56;94.53;98510.19;5056899;28;20206;-74
2021/04/17 05:10:54;;;;;;;15.43;13.83;;;;;;;1.41;95.48;98509.34;5057050;28;20574;-73
2021/04/17 05:13:21;;;;;;;13.57;12.37;;;;;;;1.49;95.16;98506.25;5059750;28;20859;-73
2021/04/17 05:15:48;;;;;;;14.03;12.80;;;;;;;1.35;95.52;98512.34;5060223;28;20225;-73
2021/04/17 05:18:15;;;;;;;13.43;12.23;;;;;;;1.49;95.75;98510.66;5061344;28;20218;-73
2021/04/17 05:20:43;;;;;;;13.87;12.60;;;;;;;1.61;94.89;98502.03;5059359;28;20300;-73
2021/04/17 05:23:10;;;;;;;14.67;13.27;;;;;;;1.59;94.34;98512.59;5061492;28;20226;-73
2021/04/17 05:25:37;;;;;;;14.10;12.80;;;;;;;1.82;92.95;98504.28;5060055;28;20206;-73
2021/04/17 05:28:08;;;;;;;13.80;12.60;;;;;;;1.75;93.01;98506.41;5059877;28;20207;-73
2021/04/17 05:30:35;;;;;;;14.40;13.20;;;;;;;1.71;93.24;98503.19;5062434;28;20457;-72
2021/04/17 05:33:02;;;;;;;14.63;13.23;;;;;;;1.95;92.41;98506.97;5060354;28;20305;-72
2021/04/17 05:35:29;;;;;;;12.87;11.77;;;;;;;2.06;91.77;98514.09;5057411;28;20516;-72
2021/04/17 05:37:57;;;;;;;13.33;11.93;;;;;;;1.92;92.12;98505.38;5060785;28;20231;-73
2021/04/17 05:40:24;;;;;;;13.43;12.20;;;;;;;1.94;92.43;98503.50;5055763;28;20221;-73
2021/04/17 05:42:51;;;;;;;14.93;13.63;;;;;;;2.02;92.24;98508.25;5058935;28;20285;-72
2021/04/17 05:45:19;;;;;;;13.53;12.40;;;;;;;2.30;90.13;98504.69;5058962;28;20215;-72
2021/04/17 05:47:46;;;;;;;13.87;12.77;;;;;;;2.50;88.35;98504.34;5060283;28;20241;-71
2021/04/17 05:50:14;;;;;;;14.00;12.80;;;;;;;2.50;87.80;98507.81;5060331;28;20223;-73
2021/04/17 05:52:41;;;;;;;16.60;15.20;;;;;;;2.52;88.04;98507.69;5060696;28;20195;-72
2021/04/17 05:55:10;;;;;;;15.03;13.63;;;;;;;2.37;88.69;98504.31;5061388;28;20227;-72
2021/04/17 05:57:37;;;;;;;14.90;13.13;;;;;;;2.40;89.26;98504.94;5061266;28;20294;-73
2021/04/17 06:00:06;;;;;;;23.90;16.27;;;;;;;2.49;89.15;98505.28;5063530;28;20318;-71
2021/04/17 06:02:34;;;;;;;14.80;13.27;;;;;;;2.53;88.88;98502.38;5059730;28;20281;-71
2021/04/17 06:05:01;;;;;;;12.93;11.93;;;;;;;2.49;88.05;98508.75;5060701;28;20355;-71
2021/04/17 06:07:29;;;;;;;22.83;20.67;;;;;;;2.55;88.28;98513.59;5064658;28;20202;-70
2021/04/17 06:09:56;;;;;;;15.70;14.33;;;;;;;2.56;89.03;98503.94;5061165;28;20258;-71
2021/04/17 06:12:23;;;;;;;46.10;41.93;;;;;;;2.59;87.74;98509.81;5060136;28;20293;-69
2021/04/17 06:14:50;;;;;;;14.33;12.97;;;;;;;2.84;88.12;98509.97;5061254;28;20218;-71
2021/04/17 06:17:17;;;;;;;12.33;11.40;;;;;;;2.71;87.31;98513.41;5059012;28;20294;-71
2021/04/17 06:19:46;;;;;;;45.43;42.20;;;;;;;2.97;86.40;98510.00;5061622;28;20260;-71
2021/04/17 06:22:13;;;;;;;14.33;12.83;;;;;;;2.93;86.50;98514.59;5059942;28;20295;-72
2021/04/17 06:24:40;;;;;;;21.73;19.93;;;;;;;2.98;87.43;98509.06;5060250;28;20301;-71
2021/04/17 06:27:07;;;;;;;15.73;14.23;;;;;;;3.06;86.20;98512.00;5061968;28;20202;-71
2021/04/17 06:29:34;;;;;;;12.83;11.83;;;;;;;3.14;85.54;98506.25;5061475;28;20218;-71
2021/04/17 06:32:02;;;;;;;13.80;12.57;;;;;;;3.52;83.32;98515.03;5065981;28;20602;-71
2021/04/17 06:34:29;;;;;;;14.87;13.30;;;;;;;3.41;84.18;98514.00;5060747;28;20781;-71
2021/04/17 06:36:57;;;;;;;13.87;12.73;;;;;;;3.60;82.54;98510.94;5060398;28;20297;-71
2021/04/17 06:39:24;;;;;;;12.93;11.83;;;;;;;3.45;83.51;98512.84;5059837;28;21029;-71
2021/04/17 06:41:53;;;;;;;13.47;12.30;;;;;;;3.52;82.60;98512.41;5061126;28;20602;-71
2021/04/17 06:44:21;;;;;;;12.97;11.77;;;;;;;3.53;81.49;98517.56;5063265;28;20218;-71
2021/04/17 06:46:49;;;;;;;13.13;11.83;;;;;;;3.75;79.59;98508.16;5062747;28;20499;-72
2021/04/17 06:49:17;;;;;;;11.87;10.63;;;;;;;3.81;79.04;98501.66;5063033;28;20249;-71
2021/04/17 06:51:46;;;;;;;10.53;9.57;;;;;;;3.91;79.13;98505.31;5062846;28;20242;-71
2021/04/17 06:54:19;;;;;;;18.47;16.70;;;;;;;3.98;79.91;98500.47;5063677;28;20317;-71
2021/04/17 06:56:48;;;;;;;12.93;11.87;;;;;;;4.23;79.48;98496.91;5061629;28;20199;-71
2021/04/17 06:59:16;;;;;;;11.23;10.33;;;;;;;4.40;77.15;98497.50;5063809;28;20306;-71
2021/04/17 07:01:43;;;;;;;10.37;9.47;;;;;;;4.25;76.38;98500.25;5058997;28;20325;-71
2021/04/17 07:04:10;;;;;;;10.63;9.63;;;;;;;4.25;74.63;98502.06;5063316;28;20619;-71
2021/04/17 07:06:42;;;;;;;10.00;9.20;;;;;;;4.43;73.15;98499.88;5057677;28;20575;-71
2021/04/17 07:09:09;;;;;;;9.93;8.97;;;;;;;4.28;73.60;98499.22;5061619;28;20198;-72
2021/04/17 07:11:37;;;;;;;9.37;8.47;;;;;;;4.35;73.38;98506.50;5060555;28;20269;-72
2021/04/17 07:14:06;;;;;;;9.17;8.43;;;;;;;4.33;73.54;98503.16;5060702;28;20310;-72
2021/04/17 07:16:34;;;;;;;8.67;7.87;;;;;;;4.46;71.85;98510.16;5063690;28;20238;-72
2021/04/17 07:19:01;;;;;;;8.43;7.57;;;;;;;4.54;70.80;98507.81;5062301;28;20214;-72
2021/04/17 07:21:29;;;;;;;8.33;7.63;;;;;;;4.61;70.75;98502.94;5059524;28;20344;-72
2021/04/17 07:23:57;;;;;;;8.17;7.47;;;;;;;4.70;69.02;98501.41;5061446;28;20209;-71
2021/04/17 07:26:27;;;;;;;7.63;7.03;;;;;;;4.92;67.07;98501.47;5062847;28;20519;-72
2021/04/17 07:29:05;;;;;;;7.77;6.60;;;;;;;4.74;65.80;98501.06;5063019;28;20929;-72
2021/04/17 07:31:34;;;;;;;6.17;5.67;;;;;;;4.85;64.89;98497.66;5065147;28;20241;-72
2021/04/17 07:34:15;;;;;;;6.60;6.03;;;;;;;4.74;65.75;98498.44;5062435;28;20203;-71
2021/04/17 07:36:51;;;;;;;6.67;6.17;;;;;;;5.01;64.18;98502.59;5057406;28;20217;-72
2021/04/17 07:39:33;;;;;;;9.60;6.60;;;;;;;4.95;64.92;98504.84;5061119;28;20221;-72
2021/04/17 07:42:02;;;;;;;6.90;6.40;;;;;;;4.92;65.58;98504.09;5058181;28;20325;-71
2021/04/17 07:44:36;;;;;;;7.50;6.90;;;;;;;4.91;67.21;98502.44;5056866;28;20615;-71
2021/04/17 07:47:05;;;;;;;6.80;6.20;;;;;;;5.03;67.14;98500.69;5056566;28;20202;-72
2021/04/17 07:49:33;;;;;;;7.10;6.50;;;;;;;5.36;65.99;98496.44;5061429;28;20210;-70
2021/04/17 07:52:04;;;;;;;8.13;7.07;;;;;;;5.45;64.42;98502.75;5062416;28;20203;-71
2021/04/17 07:54:32;;;;;;;7.50;6.27;;;;;;;5.54;63.87;98501.19;5058098;28;20223;-71
2021/04/17 07:57:07;;;;;;;7.20;6.60;;;;;;;5.40;64.19;98493.56;5060069;28;20287;-71
2021/04/17 07:59:37;;;;;;;7.50;6.80;;;;;;;5.79;63.90;98496.66;5063104;28;20201;-73
2021/04/17 08:02:06;;;;;;;7.43;6.63;;;;;;;5.93;61.70;98492.94;5061457;28;20659;-73
2021/04/17 08:04:33;;;;;;;7.93;6.23;;;;;;;5.60;62.34;98499.91;5059873;28;20231;-73
2021/04/17 08:07:01;;;;;;;6.83;6.27;;;;;;;5.57;61.83;98506.22;5061082;28;20265;-71
2021/04/17 08:09:30;;;;;;;6.20;5.60;;;;;;;5.45;61.90;98505.38;5059428;28;20252;-72
2021/04/17 08:11:59;;;;;;;5.87;5.37;;;;;;;5.43;61.69;98504.66;5061114;28;20574;-73
2021/04/17 08:14:28;;;;;;;5.43;5.03;;;;;;;5.45;60.57;98505.38;5060851;28;20319;-72
2021/04/17 08:16:57;;;;;;;5.40;4.90;;;;;;;5.56;58.96;98501.09;5061445;28;20202;-72
2021/04/17 08:19:25;;;;;;;5.37;4.80;;;;;;;5.61;59.70;98502.41;5061582;28;20711;-73
2021/04/17 08:21:52;;;;;;;7.73;4.70;;;;;;;5.69;58.82;98496.53;5061372;28;20310;-72
2021/04/17 08:24:22;;;;;;;5.23;4.50;;;;;;;5.75;58.37;98498.69;5055534;28;20480;-73
2021/04/17 08:26:52;;;;;;;5.03;4.63;;;;;;;5.79;57.55;98505.38;5061259;28;20751;-72
2021/04/17 08:29:42;;;;;;;4.80;4.40;;;;;;;6.03;56.29;98498.31;5058256;28;20302;-71
2021/04/17 08:32:23;;;;;;;4.37;3.93;;;;;;;6.16;55.85;98504.28;5058644;28;20316;-73
2021/04/17 08:35:01;;;;;;;4.77;4.37;;;;;;;6.02;56.12;98496.63;5060618;28;20224;-72
2021/04/17 08:37:30;;;;;;;4.70;4.40;;;;;;;6.11;56.55;98497.72;5058469;28;20207;-71
2021/04/17 08:39:57;;;;;;;4.53;4.23;;;;;;;6.22;56.14;98498.53;5061200;28;20218;-72
2021/04/17 08:42:46;;;;;;;4.80;4.40;;;;;;;6.08;56.45;98491.72;5058120;28;20833;-71
2021/04/17 08:45:17;;;;;;;4.17;3.77;;;;;;;6.32;56.12;98487.25;5058088;28;20211;-73
2021/04/17 08:47:50;;;;;;;5.80;4.60;;;;;;;6.23;55.96;98487.03;5059732;28;20625;-71
2021/04/17 08:50:31;;;;;;;5.17;4.67;;;;;;;6.18;56.92;98483.94;5060988;28;20223;-71
2021/04/17 08:53:00;;;;;;;5.23;4.30;;;;;;;6.48;56.37;98477.16;5060589;28;20212;-72
2021/04/17 08:55:47;;;;;;;4.97;4.40;;;;;;;6.91;56.46;98477.19;5058230;28;20226;-72
2021/04/17 08:58:17;;;;;;;5.37;4.33;;;;;;;6.95;53.89;98489.94;5061179;28;20211;-72
2021/04/17 09:01:05;;;;;;;5.57;5.07;;;;;;;6.95;54.35;98476.78;5058588;28;20313;-72
2021/04/17 09:03:39;;;;;;;4.80;4.40;;;;;;;6.66;53.96;98474.78;5055624;28;20241;-72
2021/04/17 09:06:08;;;;;;;6.00;4.70;;;;;;;6.43;55.82;98479.28;5056218;28;20216;-72
2021/04/17 09:08:38;;;;;;;5.00;4.53;;;;;;;6.59;54.56;98472.78;5056963;28;20233;-72
2021/04/17 09:11:34;;;;;;;6.57;4.53;;;;;;;6.61;54.79;98479.59;5057298;28;20317;-72
2021/04/17 09:14:01;;;;;;;4.77;4.37;;;;;;;6.74;54.74;98481.22;5057212;28;20218;-71
2021/04/17 09:16:39;;;;;;;5.33;4.83;;;;;;;7.06;53.41;98478.50;5057030;28;20730;-71
2021/04/17 09:19:08;;;;;;;5.47;4.77;;;;;;;7.53;51.82;98470.16;5058447;28;20693;-72
2021/04/17 09:21:36;;;;;;;4.53;4.23;;;;;;;7.02;51.57;98479.72;5053318;28;20269;-72
2021/04/17 09:24:04;;;;;;;4.80;4.40;;;;;;;6.65;52.47;98478.41;5059237;28;20571;-71
2021/04/17 09:26:40;;;;;;;5.13;4.20;;;;;;;7.20;52.76;98474.72;5058234;28;20206;-71
2021/04/17 09:29:22;;;;;;;5.13;4.73;;;;;;;7.38;52.19;98474.94;5064576;28;20611;-72
2021/04/17 09:31:51;;;;;;;8.30;6.40;;;;;;;6.98;52.96;98469.56;5064451;28;20582;-72
2021/04/17 09:34:20;;;;;;;5.27;4.77;;;;;;;6.73;54.37;98469.84;5061785;28;20237;-71
2021/04/17 09:36:51;;;;;;;5.47;4.27;;;;;;;6.58;54.97;98471.94;5064537;28;21964;-71
2021/04/17 09:39:27;;;;;;;13.43;6.47;;;;;;;6.24;56.22;98469.44;5064911;28;20321;-71
2021/04/17 09:41:56;;;;;;;5.63;5.13;;;;;;;6.03;56.64;98467.59;5060336;28;20268;-73
2021/04/17 09:44:24;;;;;;;5.10;3.77;;;;;;;6.40;56.21;98469.03;5064198;28;20326;-72
2021/04/17 09:47:08;;;;;;;5.00;4.60;;;;;;;5.91;56.39;98465.91;5062233;28;20335;-72
2021/04/17 09:49:39;;;;;;;4.73;4.27;;;;;;;6.17;56.64;98463.00;5063656;28;20210;-72
2021/04/17 09:52:07;;;;;;;5.57;5.03;;;;;;;6.35;55.83;98466.78;5064411;28;20592;-72
2021/04/17 09:54:35;;;;;;;6.07;4.23;;;;;;;6.52;55.58;98464.56;5060995;28;20341;-71
2021/04/17 09:57:07;;;;;;;4.27;3.70;;;;;;;6.59;55.97;98463.06;5062197;28;20210;-71
2021/04/17 09:59:34;;;;;;;4.90;4.20;;;;;;;6.63;56.04;98469.78;5062776;28;20210;-71
2021/04/17 10:02:02;;;;;;;5.00;4.40;;;;;;;6.47;56.63;98464.94;5062572;28;20293;-71
2021/04/17 10:04:57;;;;;;;4.50;4.10;;;;;;;6.27;57.56;98463.94;5062154;28;20211;-72
2021/04/17 10:07:24;;;;;;;3.40;3.20;;;;;;;6.56;56.69;98463.31;5064364;28;20577;-72
2021/04/17 10:10:01;;;;;;;5.93;4.70;;;;;;;6.44;57.63;98465.19;5061619;28;20206;-72
2021/04/17 10:12:28;;;;;;;4.10;3.80;;;;;;;6.71;56.23;98470.94;5060688;28;20199;-71
2021/04/17 10:15:20;;;;;;;3.83;3.63;;;;;;;6.15;57.38;98464.91;5061442;28;20227;-72
2021/04/17 10:17:48;;;;;;;3.90;3.57;;;;;;;5.73;59.22;98463.78;5062631;28;20268;-71
2021/04/17 10:20:17;;;;;;;5.97;4.20;;;;;;;5.62;60.56;98453.28;5063515;28;20237;-72
2021/04/17 10:22:50;;;;;;;4.70;3.70;;;;;;;6.01;59.90;98460.75;5062910;28;20229;-71
2021/04/17 10:25:35;;;;;;;4.70;4.30;;;;;;;5.90;61.11;98456.34;5060898;28;20207;-72
2021/04/17 10:28:16;;;;;;;4.30;3.80;;;;;;;5.96;60.84;98465.53;5061846;28;20290;-72
2021/04/17 10:30:45;;;;;;;4.37;3.97;;;;;;;5.63;61.43;98465.47;5062251;28;20540;-71
2021/04/17 10:33:17;;;;;;;3.30;3.10;;;;;;;5.41;62.51;98467.13;5062846;28;20225;-73
2021/04/17 10:35:46;;;;;;;3.37;3.07;;;;;;;5.50;61.44;98458.56;5058162;28;20318;-72
2021/04/17 10:38:28;;;;;;;5.63;5.07;;;;;;;5.74;61.34;98452.31;5059967;28;20217;-72
2021/04/17 10:40:56;;;;;;;5.37;4.97;;;;;;;5.95;61.29;98456.81;5062293;28;20309;-71
2021/04/17 10:43:23;;;;;;;5.33;4.83;;;;;;;5.77;61.20;98457.31;5060196;28;20221;-72
2021/04/17 10:45:55;;;;;;;2.50;2.30;;;;;;;5.93;58.97;98456.94;5063408;28;20562;-72
2021/04/17 10:48:24;;;;;;;3.67;3.33;;;;;;;5.84;59.12;98457.69;5063683;28;20222;-71
2021/04/17 10:50:59;;;;;;;3.13;2.40;;;;;;;5.91;59.17;98455.41;5059810;28;20235;-72
2021/04/17 10:53:28;;;;;;;3.00;2.70;;;;;;;5.80;60.43;98457.06;5063622;28;20614;-72
2021/04/17 10:55:57;;;;;;;2.83;2.57;;;;;;;6.29;59.39;98453.28;5061349;28;20233;-72
2021/04/17 10:58:26;;;;;;;3.43;3.23;;;;;;;6.39;58.91;98440.19;5063075;28;20326;-72
2021/04/17 11:00:56;;;;;;;3.53;3.17;;;;;;;6.50;59.49;98450.69;5062084;28;20924;-72
2021/04/17 11:03:27;;;;;;;4.40;3.43;;;;;;;6.46;58.00;98436.94;5063453;28;20218;-72
2021/04/17 11:05:54;;;;;;;3.10;2.90;;;;;;;6.87;58.47;98449.41;5059307;28;20316;-73
2021/04/17 11:08:24;;;;;;;3.60;3.30;;;;;;;6.54;58.57;98452.09;5060658;28;20203;-72
2021/04/17 11:10:51;;;;;;;3.73;3.50;;;;;;;6.69;58.21;98454.44;5058153;28;20332;-73
2021/04/17 11:13:29;;;;;;;3.23;3.03;;;;;;;6.53;59.21;98447.78;5062086;28;20576;-71
2021/04/17 11:15:56;;;;;;;3.97;3.60;;;;;;;6.48;59.30;98442.91;5060809;28;20733;-72
2021/04/17 11:18:23;;;;;;;3.63;3.43;;;;;;;6.29;59.61;98445.38;5059854;28;20630;-72
2021/04/17 11:20:56;;;;;;;3.37;3.17;;;;;;;5.93;60.23;98446.41;5055856;28;20226;-72
2021/04/17 11:23:49;;;;;;;4.17;3.90;;;;;;;5.33;61.72;98440.63;5058680;28;20433;-72
2021/04/17 11:26:19;;;;;;;3.40;3.20;;;;;;;6.01;59.63;98444.97;5045077;28;20284;-72
2021/04/17 11:28:48;;;;;;;3.70;3.50;;;;;;;6.18;58.93;98435.72;5055766;28;20215;-73
2021/04/17 11:31:17;;;;;;;3.53;2.90;;;;;;;6.26;58.28;98437.72;5055180;28;20319;-72
2021/04/17 11:33:46;;;;;;;2.90;2.80;;;;;;;5.90;60.23;98435.31;5060528;28;20230;-72
2021/04/17 11:36:18;;;;;;;4.67;4.37;;;;;;;5.32;62.98;98441.59;5056963;28;20862;-72
2021/04/17 11:38:46;;;;;;;3.47;3.27;;;;;;;5.36;63.25;98435.97;5058857;28;20203;-72
2021/04/17 11:41:14;;;;;;;3.63;3.43;;;;;;;5.35;63.72;98436.09;5062272;28;20253;-72
2021/04/17 11:43:41;;;;;;;3.57;3.37;;;;;;;5.45;68.16;98426.50;5058414;28;20924;-72